sensor_id;sensor_type;location;lat;lon;timestamp;P1;durP1;ratioP1;P2;durP2;ratioP2
41233;SDS011;26968;42.686;23.352;2024-02-26T00:02:05;16.92;;;9.30;;
41233;SDS011;26968;42.686;23.352;2024-02-26T00:04:32;18.42;;;10.20;;
41233;SDS011;26968;42.686;23.352;2024-02-26T00:06:57;20.02;;;10.70;;
41233;SDS011;26968;42.686;23.352;2024-02-26T00:11:51;20.58;;;9.35;;
41233;SDS011;26968;42.686;23.352;2024-02-26T00:16:42;22.67;;;11.00;;
41233;SDS011;26968;42.686;23.352;2024-02-26T00:21:32;18.30;;;10.90;;
41233;SDS011;26968;42.686;23.352;2024-02-26T00:26:23;22.65;;;12.50;;
41233;SDS011;26968;42.686;23.352;2024-02-26T00:31:14;26.88;;;15.25;;
41233;SDS011;26968;42.686;23.352;2024-02-26T00:36:05;24.63;;;12.73;;
41233;SDS011;26968;42.686;23.352;2024-02-26T00:40:56;24.92;;;13.63;;
41233;SDS011;26968;42.686;23.352;2024-02-26T00:43:22;23.80;;;14.10;;
41233;SDS011;26968;42.686;23.352;2024-02-26T00:48:13;25.08;;;12.77;;
41233;SDS011;26968;42.686;23.352;2024-02-26T00:50:39;27.95;;;14.60;;
41233;SDS011;26968;42.686;23.352;2024-02-26T00:53:05;26.77;;;13.30;;
41233;SDS011;26968;42.686;23.352;2024-02-26T00:57:56;28.15;;;16.35;;
41233;SDS011;26968;42.686;23.352;2024-02-26T01:02:47;34.97;;;16.90;;
41233;SDS011;26968;42.686;23.352;2024-02-26T01:05:12;52.22;;;22.42;;
41233;SDS011;26968;42.686;23.352;2024-02-26T01:07:41;47.78;;;25.38;;
41233;SDS011;26968;42.686;23.352;2024-02-26T01:12:33;43.38;;;23.25;;
41233;SDS011;26968;42.686;23.352;2024-02-26T01:14:59;45.90;;;24.50;;
41233;SDS011;26968;42.686;23.352;2024-02-26T01:17:26;46.90;;;24.20;;
41233;SDS011;26968;42.686;23.352;2024-02-26T01:22:17;44.22;;;24.70;;
41233;SDS011;26968;42.686;23.352;2024-02-26T01:24:43;42.88;;;22.65;;
41233;SDS011;26968;42.686;23.352;2024-02-26T01:27:08;42.38;;;22.88;;
41233;SDS011;26968;42.686;23.352;2024-02-26T01:31:59;43.22;;;23.70;;
41233;SDS011;26968;42.686;23.352;2024-02-26T01:36:50;43.55;;;23.52;;
41233;SDS011;26968;42.686;23.352;2024-02-26T01:41:41;47.35;;;23.80;;
41233;SDS011;26968;42.686;23.352;2024-02-26T01:46:32;45.03;;;20.95;;
41233;SDS011;26968;42.686;23.352;2024-02-26T01:48:59;46.85;;;22.88;;
41233;SDS011;26968;42.686;23.352;2024-02-26T01:51:27;45.80;;;22.15;;
41233;SDS011;26968;42.686;23.352;2024-02-26T01:53:53;39.00;;;20.92;;
41233;SDS011;26968;42.686;23.352;2024-02-26T01:58:45;39.33;;;21.02;;
41233;SDS011;26968;42.686;23.352;2024-02-26T02:01:11;38.78;;;22.30;;
41233;SDS011;26968;42.686;23.352;2024-02-26T02:03:38;38.92;;;20.80;;
41233;SDS011;26968;42.686;23.352;2024-02-26T02:06:03;38.10;;;21.05;;
41233;SDS011;26968;42.686;23.352;2024-02-26T02:08:30;40.72;;;23.27;;
41233;SDS011;26968;42.686;23.352;2024-02-26T02:10:56;40.28;;;20.48;;
41233;SDS011;26968;42.686;23.352;2024-02-26T02:13:22;41.47;;;22.50;;
41233;SDS011;26968;42.686;23.352;2024-02-26T02:15:47;44.58;;;20.30;;
41233;SDS011;26968;42.686;23.352;2024-02-26T02:18:13;42.10;;;20.35;;
41233;SDS011;26968;42.686;23.352;2024-02-26T02:20:38;39.20;;;19.83;;
41233;SDS011;26968;42.686;23.352;2024-02-26T02:23:04;43.08;;;23.35;;
41233;SDS011;26968;42.686;23.352;2024-02-26T02:25:29;38.78;;;20.67;;
41233;SDS011;26968;42.686;23.352;2024-02-26T02:27:55;39.00;;;22.17;;
41233;SDS011;26968;42.686;23.352;2024-02-26T02:30:24;35.85;;;19.98;;
41233;SDS011;26968;42.686;23.352;2024-02-26T02:32:51;38.53;;;20.48;;
41233;SDS011;26968;42.686;23.352;2024-02-26T02:35:17;43.15;;;22.30;;
41233;SDS011;26968;42.686;23.352;2024-02-26T02:37:43;35.00;;;20.63;;
41233;SDS011;26968;42.686;23.352;2024-02-26T02:40:08;44.35;;;20.98;;
41233;SDS011;26968;42.686;23.352;2024-02-26T02:42:34;38.85;;;21.33;;
41233;SDS011;26968;42.686;23.352;2024-02-26T02:47:25;36.35;;;21.23;;
41233;SDS011;26968;42.686;23.352;2024-02-26T02:52:15;39.20;;;20.98;;
41233;SDS011;26968;42.686;23.352;2024-02-26T02:57:10;39.05;;;19.40;;
41233;SDS011;26968;42.686;23.352;2024-02-26T02:59:36;39.70;;;21.23;;
41233;SDS011;26968;42.686;23.352;2024-02-26T03:02:02;41.38;;;20.63;;
41233;SDS011;26968;42.686;23.352;2024-02-26T03:11:45;40.08;;;20.58;;
41233;SDS011;26968;42.686;23.352;2024-02-26T03:16:36;41.95;;;20.88;;
41233;SDS011;26968;42.686;23.352;2024-02-26T03:21:28;41.85;;;20.52;;
41233;SDS011;26968;42.686;23.352;2024-02-26T03:23:53;43.75;;;21.23;;
41233;SDS011;26968;42.686;23.352;2024-02-26T03:28:45;39.95;;;18.88;;
41233;SDS011;26968;42.686;23.352;2024-02-26T03:31:10;43.25;;;22.50;;
41233;SDS011;26968;42.686;23.352;2024-02-26T03:33:36;39.45;;;20.73;;
41233;SDS011;26968;42.686;23.352;2024-02-26T03:38:28;37.03;;;18.40;;
41233;SDS011;26968;42.686;23.352;2024-02-26T03:40:54;30.95;;;18.55;;
41233;SDS011;26968;42.686;23.352;2024-02-26T03:45:45;38.33;;;17.52;;
41233;SDS011;26968;42.686;23.352;2024-02-26T03:50:35;38.55;;;20.58;;
41233;SDS011;26968;42.686;23.352;2024-02-26T03:55:26;38.53;;;20.08;;
41233;SDS011;26968;42.686;23.352;2024-02-26T04:00:17;44.90;;;20.23;;
41233;SDS011;26968;42.686;23.352;2024-02-26T04:02:44;42.58;;;19.42;;
41233;SDS011;26968;42.686;23.352;2024-02-26T04:05:11;36.33;;;19.60;;
41233;SDS011;26968;42.686;23.352;2024-02-26T04:07:39;38.10;;;19.13;;
41233;SDS011;26968;42.686;23.352;2024-02-26T04:10:11;36.63;;;19.45;;
41233;SDS011;26968;42.686;23.352;2024-02-26T04:12:41;34.28;;;19.52;;
41233;SDS011;26968;42.686;23.352;2024-02-26T04:15:07;37.75;;;19.33;;
41233;SDS011;26968;42.686;23.352;2024-02-26T04:17:34;39.53;;;19.15;;
41233;SDS011;26968;42.686;23.352;2024-02-26T04:22:25;39.75;;;19.60;;
41233;SDS011;26968;42.686;23.352;2024-02-26T04:27:16;37.33;;;18.20;;
41233;SDS011;26968;42.686;23.352;2024-02-26T04:32:07;33.67;;;19.27;;
41233;SDS011;26968;42.686;23.352;2024-02-26T04:36:58;36.38;;;18.23;;
41233;SDS011;26968;42.686;23.352;2024-02-26T04:41:49;38.38;;;19.92;;
41233;SDS011;26968;42.686;23.352;2024-02-26T04:46:40;41.83;;;21.98;;
41233;SDS011;26968;42.686;23.352;2024-02-26T04:51:31;38.67;;;19.85;;
41233;SDS011;26968;42.686;23.352;2024-02-26T04:56:22;44.72;;;21.55;;
41233;SDS011;26968;42.686;23.352;2024-02-26T04:58:47;43.38;;;21.88;;
41233;SDS011;26968;42.686;23.352;2024-02-26T05:06:04;42.08;;;21.65;;
41233;SDS011;26968;42.686;23.352;2024-02-26T05:08:30;48.58;;;23.92;;
41233;SDS011;26968;42.686;23.352;2024-02-26T05:13:21;46.42;;;21.88;;
41233;SDS011;26968;42.686;23.352;2024-02-26T05:15:47;44.72;;;24.02;;
41233;SDS011;26968;42.686;23.352;2024-02-26T05:18:14;45.88;;;22.40;;
41233;SDS011;26968;42.686;23.352;2024-02-26T05:20:41;40.80;;;22.15;;
41233;SDS011;26968;42.686;23.352;2024-02-26T05:25:32;41.63;;;20.08;;
41233;SDS011;26968;42.686;23.352;2024-02-26T05:30:23;33.35;;;18.40;;
41233;SDS011;26968;42.686;23.352;2024-02-26T05:32:49;46.95;;;20.10;;
41233;SDS011;26968;42.686;23.352;2024-02-26T05:37:40;40.22;;;21.25;;
41233;SDS011;26968;42.686;23.352;2024-02-26T05:40:05;40.55;;;23.10;;
41233;SDS011;26968;42.686;23.352;2024-02-26T05:44:57;41.58;;;21.42;;
41233;SDS011;26968;42.686;23.352;2024-02-26T05:49:48;41.08;;;19.02;;
41233;SDS011;26968;42.686;23.352;2024-02-26T05:54:39;43.70;;;22.40;;
41233;SDS011;26968;42.686;23.352;2024-02-26T05:57:05;44.03;;;22.33;;
41233;SDS011;26968;42.686;23.352;2024-02-26T06:01:55;42.08;;;18.95;;
41233;SDS011;26968;42.686;23.352;2024-02-26T06:06:46;45.10;;;23.02;;
41233;SDS011;26968;42.686;23.352;2024-02-26T06:09:12;49.13;;;23.10;;
41233;SDS011;26968;42.686;23.352;2024-02-26T06:11:39;36.33;;;20.30;;
41233;SDS011;26968;42.686;23.352;2024-02-26T06:16:30;43.63;;;19.85;;
41233;SDS011;26968;42.686;23.352;2024-02-26T06:21:21;37.80;;;20.85;;
41233;SDS011;26968;42.686;23.352;2024-02-26T06:26:12;35.03;;;19.80;;
41233;SDS011;26968;42.686;23.352;2024-02-26T06:28:39;35.47;;;19.17;;
41233;SDS011;26968;42.686;23.352;2024-02-26T06:31:05;36.55;;;20.58;;
41233;SDS011;26968;42.686;23.352;2024-02-26T06:35:57;32.90;;;17.80;;
41233;SDS011;26968;42.686;23.352;2024-02-26T06:40:49;31.30;;;17.20;;
41233;SDS011;26968;42.686;23.352;2024-02-26T06:43:14;28.27;;;17.67;;
41233;SDS011;26968;42.686;23.352;2024-02-26T06:45:40;32.63;;;18.58;;
41233;SDS011;26968;42.686;23.352;2024-02-26T06:48:05;35.00;;;20.13;;
41233;SDS011;26968;42.686;23.352;2024-02-26T06:50:31;33.88;;;19.02;;
41233;SDS011;26968;42.686;23.352;2024-02-26T06:52:57;31.52;;;18.25;;
41233;SDS011;26968;42.686;23.352;2024-02-26T06:57:48;41.30;;;19.80;;
41233;SDS011;26968;42.686;23.352;2024-02-26T07:02:41;31.55;;;17.27;;
41233;SDS011;26968;42.686;23.352;2024-02-26T07:05:07;31.42;;;18.95;;
41233;SDS011;26968;42.686;23.352;2024-02-26T07:07:34;33.97;;;19.10;;
41233;SDS011;26968;42.686;23.352;2024-02-26T07:10:00;39.25;;;19.95;;
41233;SDS011;26968;42.686;23.352;2024-02-26T07:12:28;36.50;;;19.83;;
41233;SDS011;26968;42.686;23.352;2024-02-26T07:14:57;36.88;;;19.35;;
41233;SDS011;26968;42.686;23.352;2024-02-26T07:17:23;32.28;;;20.10;;
41233;SDS011;26968;42.686;23.352;2024-02-26T07:19:50;31.85;;;17.35;;
41233;SDS011;26968;42.686;23.352;2024-02-26T07:22:18;32.90;;;17.75;;
41233;SDS011;26968;42.686;23.352;2024-02-26T07:24:44;30.27;;;17.88;;
41233;SDS011;26968;42.686;23.352;2024-02-26T07:27:13;33.97;;;18.52;;
41233;SDS011;26968;42.686;23.352;2024-02-26T07:29:38;37.28;;;19.33;;
41233;SDS011;26968;42.686;23.352;2024-02-26T07:32:04;36.83;;;19.25;;
41233;SDS011;26968;42.686;23.352;2024-02-26T07:34:30;41.97;;;24.23;;
41233;SDS011;26968;42.686;23.352;2024-02-26T07:36:56;53.20;;;34.22;;
41233;SDS011;26968;42.686;23.352;2024-02-26T07:39:22;68.20;;;45.22;;
41233;SDS011;26968;42.686;23.352;2024-02-26T07:41:47;77.88;;;49.47;;
41233;SDS011;26968;42.686;23.352;2024-02-26T07:44:15;77.00;;;48.03;;
41233;SDS011;26968;42.686;23.352;2024-02-26T07:46:40;78.57;;;46.72;;
41233;SDS011;26968;42.686;23.352;2024-02-26T07:49:06;71.63;;;41.85;;
41233;SDS011;26968;42.686;23.352;2024-02-26T07:51:31;62.25;;;36.22;;
41233;SDS011;26968;42.686;23.352;2024-02-26T07:53:58;51.13;;;31.60;;
41233;SDS011;26968;42.686;23.352;2024-02-26T07:56:24;45.33;;;24.75;;
41233;SDS011;26968;42.686;23.352;2024-02-26T07:58:49;42.28;;;22.98;;
41233;SDS011;26968;42.686;23.352;2024-02-26T08:03:40;45.03;;;20.70;;
41233;SDS011;26968;42.686;23.352;2024-02-26T08:06:05;47.25;;;25.77;;
41233;SDS011;26968;42.686;23.352;2024-02-26T08:08:33;46.95;;;24.40;;
41233;SDS011;26968;42.686;23.352;2024-02-26T08:10:59;41.15;;;22.50;;
41233;SDS011;26968;42.686;23.352;2024-02-26T08:13:24;43.05;;;22.83;;
41233;SDS011;26968;42.686;23.352;2024-02-26T08:15:51;38.60;;;20.88;;
41233;SDS011;26968;42.686;23.352;2024-02-26T08:18:17;41.30;;;21.80;;
41233;SDS011;26968;42.686;23.352;2024-02-26T08:20:44;42.67;;;23.15;;
41233;SDS011;26968;42.686;23.352;2024-02-26T08:23:09;41.13;;;23.58;;
41233;SDS011;26968;42.686;23.352;2024-02-26T08:25:35;38.55;;;21.52;;
41233;SDS011;26968;42.686;23.352;2024-02-26T08:28:00;39.50;;;21.65;;
41233;SDS011;26968;42.686;23.352;2024-02-26T08:30:26;36.92;;;18.50;;
41233;SDS011;26968;42.686;23.352;2024-02-26T08:32:52;35.72;;;18.73;;
41233;SDS011;26968;42.686;23.352;2024-02-26T08:35:17;30.65;;;18.42;;
41233;SDS011;26968;42.686;23.352;2024-02-26T08:37:47;28.67;;;18.77;;
41233;SDS011;26968;42.686;23.352;2024-02-26T08:40:13;33.95;;;17.00;;
41233;SDS011;26968;42.686;23.352;2024-02-26T08:42:39;43.03;;;21.27;;
41233;SDS011;26968;42.686;23.352;2024-02-26T08:45:05;35.22;;;18.63;;
41233;SDS011;26968;42.686;23.352;2024-02-26T08:47:32;40.25;;;20.30;;
41233;SDS011;26968;42.686;23.352;2024-02-26T08:49:57;35.22;;;19.33;;
41233;SDS011;26968;42.686;23.352;2024-02-26T08:52:23;40.97;;;21.90;;
41233;SDS011;26968;42.686;23.352;2024-02-26T08:54:49;31.83;;;19.30;;
41233;SDS011;26968;42.686;23.352;2024-02-26T08:57:15;37.63;;;19.23;;
41233;SDS011;26968;42.686;23.352;2024-02-26T08:59:42;35.83;;;16.70;;
41233;SDS011;26968;42.686;23.352;2024-02-26T09:02:08;30.23;;;16.33;;
41233;SDS011;26968;42.686;23.352;2024-02-26T09:04:34;31.23;;;16.88;;
41233;SDS011;26968;42.686;23.352;2024-02-26T09:07:00;28.52;;;14.02;;
41233;SDS011;26968;42.686;23.352;2024-02-26T09:09:27;28.00;;;14.68;;
41233;SDS011;26968;42.686;23.352;2024-02-26T09:11:52;32.33;;;13.85;;
41233;SDS011;26968;42.686;23.352;2024-02-26T09:14:20;26.65;;;12.68;;
41233;SDS011;26968;42.686;23.352;2024-02-26T09:16:45;19.05;;;10.45;;
41233;SDS011;26968;42.686;23.352;2024-02-26T09:19:13;16.95;;;9.48;;
41233;SDS011;26968;42.686;23.352;2024-02-26T09:21:43;17.15;;;8.75;;
41233;SDS011;26968;42.686;23.352;2024-02-26T09:24:09;12.38;;;7.22;;
41233;SDS011;26968;42.686;23.352;2024-02-26T09:26:38;14.57;;;8.23;;
41233;SDS011;26968;42.686;23.352;2024-02-26T09:29:03;13.65;;;7.53;;
41233;SDS011;26968;42.686;23.352;2024-02-26T09:31:31;17.17;;;7.85;;
41233;SDS011;26968;42.686;23.352;2024-02-26T09:33:57;13.43;;;6.78;;
41233;SDS011;26968;42.686;23.352;2024-02-26T09:36:22;11.07;;;6.80;;
41233;SDS011;26968;42.686;23.352;2024-02-26T09:38:48;10.55;;;6.20;;
41233;SDS011;26968;42.686;23.352;2024-02-26T09:41:16;11.35;;;6.63;;
41233;SDS011;26968;42.686;23.352;2024-02-26T09:43:43;13.02;;;6.90;;
41233;SDS011;26968;42.686;23.352;2024-02-26T09:46:13;11.93;;;6.93;;
41233;SDS011;26968;42.686;23.352;2024-02-26T09:48:40;10.30;;;6.13;;
41233;SDS011;26968;42.686;23.352;2024-02-26T09:51:07;12.27;;;6.38;;
41233;SDS011;26968;42.686;23.352;2024-02-26T09:53:36;12.10;;;5.80;;
41233;SDS011;26968;42.686;23.352;2024-02-26T09:56:07;11.98;;;5.95;;
41233;SDS011;26968;42.686;23.352;2024-02-26T09:58:33;11.27;;;6.07;;
41233;SDS011;26968;42.686;23.352;2024-02-26T10:01:00;9.18;;;5.85;;
41233;SDS011;26968;42.686;23.352;2024-02-26T10:03:40;8.85;;;5.70;;
41233;SDS011;26968;42.686;23.352;2024-02-26T10:06:09;9.43;;;5.78;;
41233;SDS011;26968;42.686;23.352;2024-02-26T10:08:39;9.88;;;5.45;;
41233;SDS011;26968;42.686;23.352;2024-02-26T10:11:08;11.35;;;6.47;;
41233;SDS011;26968;42.686;23.352;2024-02-26T10:13:35;11.93;;;4.97;;
41233;SDS011;26968;42.686;23.352;2024-02-26T10:16:01;9.02;;;5.60;;
41233;SDS011;26968;42.686;23.352;2024-02-26T10:18:49;9.23;;;5.40;;
41233;SDS011;26968;42.686;23.352;2024-02-26T10:21:17;7.28;;;5.35;;
41233;SDS011;26968;42.686;23.352;2024-02-26T10:23:43;11.70;;;5.55;;
41233;SDS011;26968;42.686;23.352;2024-02-26T10:26:10;9.05;;;5.20;;
41233;SDS011;26968;42.686;23.352;2024-02-26T10:28:38;11.73;;;5.60;;
41233;SDS011;26968;42.686;23.352;2024-02-26T10:31:06;9.93;;;5.57;;
41233;SDS011;26968;42.686;23.352;2024-02-26T10:33:33;8.63;;;5.25;;
41233;SDS011;26968;42.686;23.352;2024-02-26T10:36:01;10.65;;;5.55;;
41233;SDS011;26968;42.686;23.352;2024-02-26T10:38:29;14.25;;;5.47;;
41233;SDS011;26968;42.686;23.352;2024-02-26T10:40:55;8.77;;;5.70;;
41233;SDS011;26968;42.686;23.352;2024-02-26T10:43:21;7.60;;;5.70;;
41233;SDS011;26968;42.686;23.352;2024-02-26T10:45:46;9.35;;;5.50;;
41233;SDS011;26968;42.686;23.352;2024-02-26T10:48:14;9.10;;;4.70;;
41233;SDS011;26968;42.686;23.352;2024-02-26T10:50:40;8.18;;;5.30;;
41233;SDS011;26968;42.686;23.352;2024-02-26T10:53:09;9.35;;;5.90;;
41233;SDS011;26968;42.686;23.352;2024-02-26T10:55:43;8.57;;;5.38;;
41233;SDS011;26968;42.686;23.352;2024-02-26T10:58:13;9.90;;;5.78;;
41233;SDS011;26968;42.686;23.352;2024-02-26T11:00:41;10.43;;;5.95;;
41233;SDS011;26968;42.686;23.352;2024-02-26T11:03:08;8.25;;;5.18;;
41233;SDS011;26968;42.686;23.352;2024-02-26T11:05:36;11.52;;;4.95;;
41233;SDS011;26968;42.686;23.352;2024-02-26T11:08:04;7.53;;;4.90;;
41233;SDS011;26968;42.686;23.352;2024-02-26T11:10:38;8.18;;;5.45;;
41233;SDS011;26968;42.686;23.352;2024-02-26T11:13:05;11.75;;;5.57;;
41233;SDS011;26968;42.686;23.352;2024-02-26T11:15:36;8.35;;;4.15;;
41233;SDS011;26968;42.686;23.352;2024-02-26T11:18:07;12.10;;;4.80;;
41233;SDS011;26968;42.686;23.352;2024-02-26T11:20:34;7.50;;;4.35;;
41233;SDS011;26968;42.686;23.352;2024-02-26T11:23:06;9.05;;;5.57;;
41233;SDS011;26968;42.686;23.352;2024-02-26T11:25:35;7.65;;;5.00;;
41233;SDS011;26968;42.686;23.352;2024-02-26T11:28:03;10.40;;;5.25;;
41233;SDS011;26968;42.686;23.352;2024-02-26T11:30:34;7.13;;;5.47;;
41233;SDS011;26968;42.686;23.352;2024-02-26T11:33:06;13.00;;;5.38;;
41233;SDS011;26968;42.686;23.352;2024-02-26T11:35:33;10.48;;;5.18;;
41233;SDS011;26968;42.686;23.352;2024-02-26T11:38:04;8.10;;;4.78;;
41233;SDS011;26968;42.686;23.352;2024-02-26T11:40:50;8.27;;;4.72;;
41233;SDS011;26968;42.686;23.352;2024-02-26T11:43:16;12.13;;;5.80;;
41233;SDS011;26968;42.686;23.352;2024-02-26T11:48:12;11.50;;;5.05;;
41233;SDS011;26968;42.686;23.352;2024-02-26T11:50:42;8.95;;;4.63;;
41233;SDS011;26968;42.686;23.352;2024-02-26T11:53:21;10.85;;;5.85;;
41233;SDS011;26968;42.686;23.352;2024-02-26T11:55:48;8.30;;;4.90;;
41233;SDS011;26968;42.686;23.352;2024-02-26T11:58:43;8.20;;;4.95;;
41233;SDS011;26968;42.686;23.352;2024-02-26T12:04:08;5.65;;;4.18;;
41233;SDS011;26968;42.686;23.352;2024-02-26T12:06:45;8.68;;;5.28;;
41233;SDS011;26968;42.686;23.352;2024-02-26T12:09:12;10.65;;;4.72;;
41233;SDS011;26968;42.686;23.352;2024-02-26T12:11:41;9.40;;;4.82;;
41233;SDS011;26968;42.686;23.352;2024-02-26T12:14:08;7.68;;;4.20;;
41233;SDS011;26968;42.686;23.352;2024-02-26T12:16:38;8.50;;;4.55;;
41233;SDS011;26968;42.686;23.352;2024-02-26T12:19:08;8.38;;;4.75;;
41233;SDS011;26968;42.686;23.352;2024-02-26T12:24:21;6.22;;;4.32;;
41233;SDS011;26968;42.686;23.352;2024-02-26T12:26:47;8.43;;;4.20;;
41233;SDS011;26968;42.686;23.352;2024-02-26T12:29:13;7.30;;;4.35;;
41233;SDS011;26968;42.686;23.352;2024-02-26T12:31:39;13.68;;;4.78;;
41233;SDS011;26968;42.686;23.352;2024-02-26T12:34:07;7.97;;;4.63;;
41233;SDS011;26968;42.686;23.352;2024-02-26T12:36:34;9.50;;;4.75;;
41233;SDS011;26968;42.686;23.352;2024-02-26T12:39:01;13.20;;;4.43;;
41233;SDS011;26968;42.686;23.352;2024-02-26T12:41:34;7.38;;;4.50;;
41233;SDS011;26968;42.686;23.352;2024-02-26T12:44:00;6.40;;;4.05;;
41233;SDS011;26968;42.686;23.352;2024-02-26T12:46:26;9.20;;;3.92;;
41233;SDS011;26968;42.686;23.352;2024-02-26T12:48:52;7.97;;;4.30;;
41233;SDS011;26968;42.686;23.352;2024-02-26T12:51:21;6.82;;;4.20;;
41233;SDS011;26968;42.686;23.352;2024-02-26T12:53:47;8.13;;;3.95;;
41233;SDS011;26968;42.686;23.352;2024-02-26T12:56:15;10.95;;;4.30;;
41233;SDS011;26968;42.686;23.352;2024-02-26T12:58:41;5.95;;;3.65;;
41233;SDS011;26968;42.686;23.352;2024-02-26T13:01:07;9.43;;;4.05;;
41233;SDS011;26968;42.686;23.352;2024-02-26T13:03:41;7.15;;;3.80;;
41233;SDS011;26968;42.686;23.352;2024-02-26T13:06:07;9.07;;;4.15;;
41233;SDS011;26968;42.686;23.352;2024-02-26T13:08:33;7.13;;;3.60;;
41233;SDS011;26968;42.686;23.352;2024-02-26T13:10:59;6.00;;;3.53;;
41233;SDS011;26968;42.686;23.352;2024-02-26T13:13:25;8.85;;;4.13;;
41233;SDS011;26968;42.686;23.352;2024-02-26T13:16:00;5.47;;;3.80;;
41233;SDS011;26968;42.686;23.352;2024-02-26T13:18:32;6.50;;;3.72;;
41233;SDS011;26968;42.686;23.352;2024-02-26T13:21:14;6.95;;;3.72;;
41233;SDS011;26968;42.686;23.352;2024-02-26T13:23:43;11.20;;;4.20;;
41233;SDS011;26968;42.686;23.352;2024-02-26T13:26:17;8.38;;;3.72;;
41233;SDS011;26968;42.686;23.352;2024-02-26T13:28:58;6.60;;;3.38;;
41233;SDS011;26968;42.686;23.352;2024-02-26T13:31:27;5.35;;;3.65;;
41233;SDS011;26968;42.686;23.352;2024-02-26T13:33:53;8.57;;;3.72;;
41233;SDS011;26968;42.686;23.352;2024-02-26T13:36:37;6.13;;;3.85;;
41233;SDS011;26968;42.686;23.352;2024-02-26T13:39:03;6.80;;;3.03;;
41233;SDS011;26968;42.686;23.352;2024-02-26T13:41:30;7.55;;;3.38;;
41233;SDS011;26968;42.686;23.352;2024-02-26T13:43:55;6.95;;;3.78;;
41233;SDS011;26968;42.686;23.352;2024-02-26T13:46:22;7.47;;;3.55;;
41233;SDS011;26968;42.686;23.352;2024-02-26T13:48:57;6.60;;;3.30;;
41233;SDS011;26968;42.686;23.352;2024-02-26T13:51:22;6.63;;;3.75;;
41233;SDS011;26968;42.686;23.352;2024-02-26T13:53:48;9.27;;;3.97;;
41233;SDS011;26968;42.686;23.352;2024-02-26T13:56:15;6.18;;;3.40;;
41233;SDS011;26968;42.686;23.352;2024-02-26T13:58:40;6.20;;;3.58;;
41233;SDS011;26968;42.686;23.352;2024-02-26T14:01:09;7.35;;;3.47;;
41233;SDS011;26968;42.686;23.352;2024-02-26T14:03:35;7.70;;;3.95;;
41233;SDS011;26968;42.686;23.352;2024-02-26T14:06:02;5.05;;;3.70;;
41233;SDS011;26968;42.686;23.352;2024-02-26T14:08:27;6.53;;;3.25;;
41233;SDS011;26968;42.686;23.352;2024-02-26T14:10:53;6.38;;;3.50;;
41233;SDS011;26968;42.686;23.352;2024-02-26T14:13:19;7.20;;;3.65;;
41233;SDS011;26968;42.686;23.352;2024-02-26T14:15:45;6.00;;;3.70;;
41233;SDS011;26968;42.686;23.352;2024-02-26T14:18:11;6.00;;;3.25;;
41233;SDS011;26968;42.686;23.352;2024-02-26T14:20:36;9.25;;;3.50;;
41233;SDS011;26968;42.686;23.352;2024-02-26T14:23:02;7.85;;;3.42;;
41233;SDS011;26968;42.686;23.352;2024-02-26T14:25:29;6.82;;;3.40;;
41233;SDS011;26968;42.686;23.352;2024-02-26T14:27:54;6.15;;;3.45;;
41233;SDS011;26968;42.686;23.352;2024-02-26T14:30:20;8.13;;;3.70;;
41233;SDS011;26968;42.686;23.352;2024-02-26T14:32:46;6.60;;;3.35;;
41233;SDS011;26968;42.686;23.352;2024-02-26T14:35:30;7.57;;;4.22;;
41233;SDS011;26968;42.686;23.352;2024-02-26T14:37:55;7.88;;;3.42;;
41233;SDS011;26968;42.686;23.352;2024-02-26T14:40:27;5.10;;;3.25;;
41233;SDS011;26968;42.686;23.352;2024-02-26T14:42:52;8.48;;;4.03;;
41233;SDS011;26968;42.686;23.352;2024-02-26T14:45:18;6.43;;;3.30;;
41233;SDS011;26968;42.686;23.352;2024-02-26T14:47:44;8.95;;;3.08;;
41233;SDS011;26968;42.686;23.352;2024-02-26T14:50:09;6.97;;;2.80;;
41233;SDS011;26968;42.686;23.352;2024-02-26T14:52:36;5.13;;;2.90;;
41233;SDS011;26968;42.686;23.352;2024-02-26T14:55:01;8.07;;;3.80;;
41233;SDS011;26968;42.686;23.352;2024-02-26T14:57:27;8.73;;;3.97;;
41233;SDS011;26968;42.686;23.352;2024-02-26T14:59:54;5.97;;;3.40;;
41233;SDS011;26968;42.686;23.352;2024-02-26T15:02:19;5.50;;;2.80;;
41233;SDS011;26968;42.686;23.352;2024-02-26T15:04:45;7.82;;;3.25;;
41233;SDS011;26968;42.686;23.352;2024-02-26T15:07:11;6.45;;;2.85;;
41233;SDS011;26968;42.686;23.352;2024-02-26T15:09:37;6.45;;;2.72;;
41233;SDS011;26968;42.686;23.352;2024-02-26T15:12:03;6.07;;;3.22;;
41233;SDS011;26968;42.686;23.352;2024-02-26T15:14:33;5.03;;;3.10;;
41233;SDS011;26968;42.686;23.352;2024-02-26T15:16:58;5.85;;;3.33;;
41233;SDS011;26968;42.686;23.352;2024-02-26T15:19:24;5.88;;;3.00;;
41233;SDS011;26968;42.686;23.352;2024-02-26T15:21:51;14.82;;;3.97;;
41233;SDS011;26968;42.686;23.352;2024-02-26T15:24:17;8.18;;;3.35;;
41233;SDS011;26968;42.686;23.352;2024-02-26T15:26:43;4.30;;;2.95;;
41233;SDS011;26968;42.686;23.352;2024-02-26T15:29:09;5.70;;;3.45;;
41233;SDS011;26968;42.686;23.352;2024-02-26T15:31:35;8.40;;;3.47;;
41233;SDS011;26968;42.686;23.352;2024-02-26T15:34:00;4.57;;;2.65;;
41233;SDS011;26968;42.686;23.352;2024-02-26T15:36:27;6.70;;;3.00;;
41233;SDS011;26968;42.686;23.352;2024-02-26T15:38:52;8.18;;;3.40;;
41233;SDS011;26968;42.686;23.352;2024-02-26T15:41:18;7.78;;;3.40;;
41233;SDS011;26968;42.686;23.352;2024-02-26T15:43:44;7.35;;;2.70;;
41233;SDS011;26968;42.686;23.352;2024-02-26T15:46:17;5.60;;;2.95;;
41233;SDS011;26968;42.686;23.352;2024-02-26T15:49:38;7.65;;;3.03;;
41233;SDS011;26968;42.686;23.352;2024-02-26T15:52:04;13.48;;;3.08;;
41233;SDS011;26968;42.686;23.352;2024-02-26T15:54:30;5.45;;;3.25;;
41233;SDS011;26968;42.686;23.352;2024-02-26T15:56:55;6.88;;;3.03;;
41233;SDS011;26968;42.686;23.352;2024-02-26T15:59:24;9.57;;;3.63;;
41233;SDS011;26968;42.686;23.352;2024-02-26T16:01:52;10.65;;;3.33;;
41233;SDS011;26968;42.686;23.352;2024-02-26T16:04:18;6.97;;;3.25;;
41233;SDS011;26968;42.686;23.352;2024-02-26T16:06:46;6.07;;;4.35;;
41233;SDS011;26968;42.686;23.352;2024-02-26T16:09:14;8.75;;;4.07;;
41233;SDS011;26968;42.686;23.352;2024-02-26T16:11:40;6.60;;;3.13;;
41233;SDS011;26968;42.686;23.352;2024-02-26T16:16:55;5.00;;;3.33;;
41233;SDS011;26968;42.686;23.352;2024-02-26T16:19:25;7.10;;;3.47;;
41233;SDS011;26968;42.686;23.352;2024-02-26T16:21:51;6.75;;;3.20;;
41233;SDS011;26968;42.686;23.352;2024-02-26T16:24:19;6.78;;;3.40;;
41233;SDS011;26968;42.686;23.352;2024-02-26T16:26:44;9.02;;;3.53;;
41233;SDS011;26968;42.686;23.352;2024-02-26T16:29:10;6.68;;;3.15;;
41233;SDS011;26968;42.686;23.352;2024-02-26T16:31:36;7.30;;;3.35;;
41233;SDS011;26968;42.686;23.352;2024-02-26T16:34:01;10.93;;;4.05;;
41233;SDS011;26968;42.686;23.352;2024-02-26T16:36:27;7.25;;;3.92;;
41233;SDS011;26968;42.686;23.352;2024-02-26T16:38:52;7.95;;;3.90;;
41233;SDS011;26968;42.686;23.352;2024-02-26T16:41:18;8.75;;;4.35;;
41233;SDS011;26968;42.686;23.352;2024-02-26T16:43:43;9.85;;;4.47;;
41233;SDS011;26968;42.686;23.352;2024-02-26T16:46:09;11.27;;;4.72;;
41233;SDS011;26968;42.686;23.352;2024-02-26T16:48:36;10.95;;;4.57;;
41233;SDS011;26968;42.686;23.352;2024-02-26T16:51:02;10.32;;;4.07;;
41233;SDS011;26968;42.686;23.352;2024-02-26T16:53:28;6.05;;;3.85;;